createdAt,value
2022-09-21T00:01:19.801Z,14.84
2022-09-21T00:03:47.150Z,14.84
2022-09-21T00:06:18.707Z,14.83
2022-09-21T00:08:46.734Z,14.86
2022-09-21T00:11:20.578Z,14.88
2022-09-21T00:13:47.838Z,14.87
2022-09-21T00:16:16.637Z,14.89
2022-09-21T00:18:43.821Z,14.90
2022-09-21T00:21:13.134Z,14.89
2022-09-21T00:23:41.630Z,14.91
2022-09-21T00:26:14.668Z,14.93
2022-09-21T00:28:42.051Z,14.94
2022-09-21T00:31:12.389Z,14.99
2022-09-21T00:33:41.055Z,15.02
2022-09-21T00:36:17.067Z,14.99
2022-09-21T00:38:45.342Z,15.00
2022-09-21T00:41:13.664Z,14.98
2022-09-21T00:43:45.355Z,15.00
2022-09-21T00:46:24.968Z,14.99
2022-09-21T00:48:51.889Z,14.96
2022-09-21T00:51:18.839Z,14.91
2022-09-21T00:53:46.748Z,14.88
2022-09-21T00:56:15.668Z,14.85
2022-09-21T00:58:46.843Z,14.86
2022-09-21T01:01:16.628Z,14.85
2022-09-21T01:03:45.778Z,14.83
2022-09-21T01:06:14.481Z,14.81
2022-09-21T01:08:42.844Z,14.81
2022-09-21T01:11:32.783Z,14.81
2022-09-21T01:14:08.034Z,14.82
2022-09-21T01:16:40.878Z,14.82
2022-09-21T01:19:40.090Z,14.84
2022-09-21T01:22:22.134Z,14.85
2022-09-21T01:25:00.399Z,14.83
2022-09-21T01:27:51.914Z,14.83
2022-09-21T01:30:21.800Z,14.81
2022-09-21T01:33:09.770Z,14.82
2022-09-21T01:35:42.710Z,14.81
2022-09-21T01:38:15.694Z,14.81
2022-09-21T01:40:46.253Z,14.79
2022-09-21T01:43:20.183Z,14.76
2022-09-21T01:45:52.149Z,14.75
2022-09-21T01:48:22.404Z,14.75
2022-09-21T01:50:55.083Z,14.77
2022-09-21T01:53:39.898Z,14.76
2022-09-21T01:56:13.513Z,14.76
2022-09-21T01:58:45.332Z,14.76
2022-09-21T02:01:16.220Z,14.75
2022-09-21T02:03:49.950Z,14.74
2022-09-21T02:06:18.739Z,14.75
2022-09-21T02:08:46.666Z,14.74
2022-09-21T02:11:13.456Z,14.71
2022-09-21T02:13:45.647Z,14.70
2022-09-21T02:16:24.325Z,14.68
2022-09-21T02:19:10.939Z,14.66
2022-09-21T02:21:49.484Z,14.63
2022-09-21T02:24:38.554Z,14.62
2022-09-21T02:27:31.731Z,14.60
2022-09-21T02:30:11.807Z,14.58
2022-09-21T02:32:43.709Z,14.58
2022-09-21T02:35:19.779Z,14.59
2022-09-21T02:38:07.238Z,14.60
2022-09-21T02:41:03.589Z,14.59
2022-09-21T02:43:48.993Z,14.58
2022-09-21T02:46:24.356Z,14.57
2022-09-21T02:48:58.493Z,14.56
2022-09-21T02:51:35.074Z,14.53
2022-09-21T02:54:06.511Z,14.53
2022-09-21T02:56:33.906Z,14.51
2022-09-21T02:59:04.649Z,14.48
2022-09-21T03:01:33.185Z,14.45
2022-09-21T03:04:00.363Z,14.43
2022-09-21T03:06:27.141Z,14.40
2022-09-21T03:08:53.984Z,14.37
2022-09-21T03:11:20.875Z,14.34
2022-09-21T03:13:47.650Z,14.30
2022-09-21T03:16:17.303Z,14.27
2022-09-21T03:18:44.571Z,14.22
2022-09-21T03:21:12.348Z,14.20
2022-09-21T03:23:40.123Z,14.15
2022-09-21T03:26:07.239Z,14.10
2022-09-21T03:28:34.446Z,14.09
2022-09-21T03:31:01.293Z,14.06
2022-09-21T03:33:27.989Z,14.01
2022-09-21T03:35:54.811Z,13.97
2022-09-21T03:38:21.954Z,13.92
2022-09-21T03:40:49.820Z,13.87
2022-09-21T03:43:17.778Z,13.83
2022-09-21T03:45:44.762Z,13.81
2022-09-21T03:48:12.166Z,13.78
2022-09-21T03:50:39.058Z,13.76
2022-09-21T03:53:05.999Z,13.73
2022-09-21T03:55:33.323Z,13.68
2022-09-21T03:58:00.043Z,13.65
2022-09-21T04:00:27.212Z,13.64
2022-09-21T04:07:15.407Z,13.47
2022-09-21T04:09:42.183Z,13.40
2022-09-21T04:12:08.884Z,13.33
2022-09-21T04:14:35.557Z,13.31
2022-09-21T04:17:02.356Z,13.30
2022-09-21T04:19:29.099Z,13.24
2022-09-21T04:21:56.268Z,13.20
2022-09-21T04:24:23.491Z,13.18
2022-09-21T04:26:50.337Z,13.13
2022-09-21T04:29:17.110Z,13.09
2022-09-21T04:31:43.771Z,13.06
2022-09-21T04:34:13.689Z,13.02
2022-09-21T04:36:40.426Z,12.95
2022-09-21T04:39:07.183Z,12.93
2022-09-21T04:41:33.836Z,12.95
2022-09-21T04:44:01.344Z,13.03
2022-09-21T04:46:28.106Z,13.09
2022-09-21T04:48:55.091Z,13.14
2022-09-21T04:51:21.739Z,13.21
2022-09-21T04:53:48.444Z,13.24
2022-09-21T04:56:16.590Z,13.27
2022-09-21T04:58:43.843Z,13.30
2022-09-21T05:01:11.848Z,13.32
2022-09-21T05:03:38.955Z,13.32
2022-09-21T05:06:05.966Z,13.29
2022-09-21T05:08:51.572Z,13.30
2022-09-21T05:11:19.440Z,13.29
2022-09-21T05:13:47.279Z,13.29
2022-09-21T05:16:15.166Z,13.30
2022-09-21T05:18:47.287Z,13.32
2022-09-21T05:21:15.024Z,13.35
2022-09-21T05:23:42.053Z,13.36
2022-09-21T05:26:08.839Z,13.37
2022-09-21T05:28:40.279Z,13.37
2022-09-21T05:31:32.048Z,13.41
2022-09-21T05:34:11.372Z,13.41
2022-09-21T05:36:40.804Z,13.43
2022-09-21T05:39:08.201Z,13.45
2022-09-21T05:41:35.227Z,13.44
2022-09-21T05:44:02.301Z,13.45
2022-09-21T05:46:31.807Z,13.48
2022-09-21T05:49:06.030Z,13.48
2022-09-21T05:51:55.730Z,13.48
2022-09-21T05:54:26.495Z,13.47
2022-09-21T05:57:00.618Z,13.48
2022-09-21T05:59:48.731Z,13.48
2022-09-21T06:02:53.649Z,13.46
2022-09-21T06:05:21.007Z,13.45
2022-09-21T06:07:47.758Z,13.42
2022-09-21T06:10:16.060Z,13.39
2022-09-21T06:12:43.165Z,13.36
2022-09-21T06:15:13.919Z,13.36
2022-09-21T06:17:41.309Z,13.35
2022-09-21T06:20:08.470Z,13.35
2022-09-21T06:22:35.590Z,13.37
2022-09-21T06:25:02.293Z,13.41
2022-09-21T06:27:29.985Z,13.44
2022-09-21T06:29:59.522Z,13.49
2022-09-21T06:32:26.427Z,13.52
2022-09-21T06:34:53.144Z,13.58
2022-09-21T06:37:19.918Z,13.63
2022-09-21T06:39:46.567Z,13.66
2022-09-21T06:42:13.299Z,13.70
2022-09-21T06:44:40.023Z,13.73
2022-09-21T06:47:06.790Z,13.76
2022-09-21T06:49:33.511Z,13.79
2022-09-21T06:52:04.085Z,13.85
2022-09-21T06:54:30.942Z,13.89
2022-09-21T06:57:00.099Z,13.91
2022-09-21T06:59:26.978Z,13.95
2022-09-21T07:01:55.800Z,13.98
2022-09-21T07:04:25.325Z,14.07
2022-09-21T07:06:52.126Z,14.13
2022-09-21T07:12:07.179Z,14.26
2022-09-21T07:14:34.194Z,14.34
2022-09-21T07:17:00.896Z,14.40
2022-09-21T07:19:27.622Z,14.47
2022-09-21T07:21:55.551Z,14.53
2022-09-21T07:24:22.297Z,14.59
2022-09-21T07:26:50.671Z,14.67
2022-09-21T07:29:17.386Z,14.72
2022-09-21T07:31:48.556Z,14.75
2022-09-21T07:34:16.819Z,14.81
2022-09-21T07:36:43.770Z,14.85
2022-09-21T07:39:10.809Z,14.85
2022-09-21T07:41:37.822Z,14.88
2022-09-21T07:44:05.270Z,14.89
2022-09-21T07:46:32.216Z,14.94
2022-09-21T07:48:59.058Z,15.01
2022-09-21T07:51:26.609Z,15.07
2022-09-21T07:53:59.867Z,15.12
2022-09-21T07:56:26.676Z,15.16
2022-09-21T07:59:08.403Z,15.20
2022-09-21T08:01:40.351Z,15.22
2022-09-21T08:04:09.688Z,15.23
2022-09-21T08:06:40.320Z,15.26
2022-09-21T08:09:08.662Z,15.30
2022-09-21T08:11:37.485Z,15.32
2022-09-21T08:14:04.660Z,15.35
2022-09-21T08:16:32.223Z,15.36
2022-09-21T08:18:59.834Z,15.38
2022-09-21T08:21:26.740Z,15.39
2022-09-21T08:23:53.927Z,15.41
2022-09-21T08:26:20.792Z,15.44
2022-09-21T08:28:49.950Z,15.47
2022-09-21T08:31:19.762Z,15.49
2022-09-21T08:33:47.726Z,15.55
2022-09-21T08:36:14.599Z,15.58
2022-09-21T08:38:41.468Z,15.65
2022-09-21T08:41:20.624Z,15.74
2022-09-21T08:44:02.667Z,15.89
2022-09-21T08:46:32.885Z,16.05
2022-09-21T08:49:04.111Z,16.21
2022-09-21T08:51:36.703Z,16.35
2022-09-21T08:54:19.386Z,16.53
2022-09-21T08:57:04.529Z,16.75
2022-09-21T08:59:33.390Z,17.01
2022-09-21T09:02:06.032Z,17.33
2022-09-21T09:04:36.683Z,17.66
2022-09-21T09:07:15.482Z,18.13
2022-09-21T09:09:48.707Z,18.81
2022-09-21T09:12:53.941Z,19.64
2022-09-21T09:15:41.876Z,20.10
2022-09-21T09:18:42.759Z,20.62
2022-09-21T09:21:24.106Z,21.18
2022-09-21T09:24:03.114Z,21.73
2022-09-21T09:26:51.539Z,21.88
2022-09-21T09:29:52.571Z,21.86
2022-09-21T09:32:24.175Z,21.85
2022-09-21T09:35:22.924Z,21.94
2022-09-21T09:37:52.213Z,21.52
2022-09-21T09:40:34.421Z,20.85
2022-09-21T09:43:11.974Z,20.55
2022-09-21T09:46:01.693Z,20.56
2022-09-21T09:48:38.126Z,20.87
2022-09-21T09:51:11.470Z,21.20
2022-09-21T09:53:38.701Z,21.42
2022-09-21T09:56:05.665Z,21.61
2022-09-21T09:58:35.178Z,21.90
2022-09-21T10:01:03.613Z,22.12
2022-09-21T10:03:30.507Z,21.94
2022-09-21T10:05:57.272Z,21.96
2022-09-21T10:08:44.573Z,21.76
2022-09-21T10:11:13.978Z,21.08
2022-09-21T10:13:46.459Z,20.56
2022-09-21T10:16:17.780Z,20.26
2022-09-21T10:18:58.988Z,19.83
2022-09-21T10:21:41.299Z,19.82
2022-09-21T10:24:18.791Z,19.79
2022-09-21T10:27:02.311Z,19.58
2022-09-21T10:29:48.815Z,19.60
2022-09-21T10:32:18.038Z,19.39
2022-09-21T10:35:07.752Z,19.16
2022-09-21T10:37:43.224Z,19.01
2022-09-21T10:40:35.743Z,18.93
2022-09-21T10:43:02.503Z,18.94
2022-09-21T10:45:31.936Z,19.16
2022-09-21T10:47:59.963Z,19.39
2022-09-21T10:50:36.894Z,19.71
2022-09-21T10:53:09.799Z,19.95
2022-09-21T10:56:11.971Z,20.13
2022-09-21T10:59:13.873Z,19.93
2022-09-21T11:01:49.199Z,19.79
2022-09-21T11:04:29.968Z,19.60
2022-09-21T11:07:32.403Z,19.62
2022-09-21T11:10:18.140Z,19.59
2022-09-21T11:12:59.016Z,19.53
2022-09-21T11:15:49.472Z,19.48
2022-09-21T11:18:16.217Z,19.59
2022-09-21T11:20:47.468Z,19.72
2022-09-21T11:23:28.887Z,19.75
2022-09-21T11:26:19.960Z,19.79
2022-09-21T11:29:03.546Z,19.76
2022-09-21T11:31:33.038Z,19.73
2022-09-21T11:34:27.204Z,19.77
2022-09-21T11:37:23.125Z,19.95
2022-09-21T11:40:33.253Z,19.92
2022-09-21T11:43:08.296Z,19.92
2022-09-21T11:45:40.671Z,20.01
2022-09-21T11:48:36.512Z,20.15
2022-09-21T11:51:45.249Z,20.17
2022-09-21T11:54:35.094Z,20.04
2022-09-21T11:57:20.317Z,19.89
2022-09-21T12:00:16.031Z,19.79
2022-09-21T12:03:18.551Z,19.83
2022-09-21T12:05:54.133Z,19.99
2022-09-21T12:08:42.459Z,20.09
2022-09-21T12:11:25.486Z,20.14
2022-09-21T12:13:58.328Z,20.15
2022-09-21T12:16:50.927Z,20.16
2022-09-21T12:19:55.424Z,20.13
2022-09-21T12:22:33.816Z,19.99
2022-09-21T12:25:13.571Z,19.90
2022-09-21T12:27:47.531Z,19.75
2022-09-21T12:30:20.750Z,19.54
2022-09-21T12:33:03.655Z,19.27
2022-09-21T12:35:42.562Z,19.06
2022-09-21T12:41:31.534Z,18.93
2022-09-21T12:44:52.236Z,18.99
2022-09-21T12:47:47.062Z,19.07
2022-09-21T12:50:21.251Z,19.13
2022-09-21T12:52:50.106Z,19.19
2022-09-21T12:55:29.019Z,19.22
2022-09-21T12:58:17.449Z,19.25
2022-09-21T13:01:14.580Z,19.23
2022-09-21T13:04:16.311Z,19.18
2022-09-21T13:07:00.470Z,19.03
2022-09-21T13:09:28.798Z,18.91
2022-09-21T13:12:09.312Z,18.82
2022-09-21T13:14:43.569Z,18.71
2022-09-21T13:17:23.572Z,18.60
2022-09-21T13:20:05.198Z,18.60
2022-09-21T13:22:37.458Z,18.67
2022-09-21T13:25:18.785Z,18.71
2022-09-21T13:28:13.614Z,18.75
2022-09-21T13:30:45.653Z,18.83
2022-09-21T13:33:23.869Z,18.87
2022-09-21T13:36:02.376Z,18.84
2022-09-21T13:38:41.332Z,18.95
2022-09-21T13:41:21.188Z,19.00
2022-09-21T13:43:59.710Z,18.99
2022-09-21T13:46:32.241Z,19.04
2022-09-21T13:49:21.278Z,19.13
2022-09-21T13:52:03.252Z,19.17
2022-09-21T13:54:38.749Z,19.11
2022-09-21T13:57:36.954Z,19.07
2022-09-21T14:00:15.178Z,18.92
2022-09-21T14:02:50.091Z,18.87
2022-09-21T14:05:25.754Z,18.84
2022-09-21T14:08:03.120Z,18.82
2022-09-21T14:10:32.278Z,18.78
2022-09-21T14:13:01.179Z,18.80
2022-09-21T14:15:38.695Z,18.82
2022-09-21T14:18:11.931Z,18.80
2022-09-21T14:20:39.538Z,18.79
2022-09-21T14:23:22.695Z,18.84
2022-09-21T14:26:02.202Z,18.83
2022-09-21T14:28:43.359Z,18.80
2022-09-21T14:31:19.041Z,18.85
2022-09-21T14:33:54.402Z,18.87
2022-09-21T14:36:41.948Z,18.87
2022-09-21T14:39:40.667Z,18.87
2022-09-21T14:42:23.283Z,18.93
2022-09-21T14:44:51.761Z,19.00
2022-09-21T14:47:21.215Z,19.10
2022-09-21T14:49:57.567Z,19.17
2022-09-21T14:52:40.934Z,19.17
2022-09-21T14:55:31.579Z,19.21
2022-09-21T14:58:32.143Z,19.24
2022-09-21T15:01:21.486Z,19.47
2022-09-21T15:03:49.076Z,19.66
2022-09-21T15:06:41.371Z,19.92
2022-09-21T15:09:42.844Z,19.99
2022-09-21T15:12:26.075Z,20.10
2022-09-21T15:15:20.467Z,20.12
2022-09-21T15:17:59.822Z,20.03
2022-09-21T15:20:29.617Z,19.88
2022-09-21T15:22:58.520Z,19.74
2022-09-21T15:25:28.391Z,19.65
2022-09-21T15:27:55.690Z,19.55
2022-09-21T15:30:29.393Z,19.45
2022-09-21T15:32:59.786Z,19.36
2022-09-21T15:35:29.383Z,19.36
2022-09-21T15:38:00.138Z,19.38
2022-09-21T15:40:36.548Z,19.52
2022-09-21T15:43:21.021Z,19.59
2022-09-21T15:46:01.206Z,19.58
2022-09-21T15:48:39.143Z,19.48
2022-09-21T15:51:24.815Z,19.39
2022-09-21T15:53:56.734Z,19.33
2022-09-21T15:56:25.872Z,19.21
2022-09-21T15:59:08.871Z,19.19
2022-09-21T16:01:44.218Z,19.17
2022-09-21T16:04:19.879Z,19.12
2022-09-21T16:07:08.185Z,19.07
2022-09-21T16:09:46.222Z,19.07
2022-09-21T16:12:43.138Z,19.16
2022-09-21T16:15:25.585Z,19.21
2022-09-21T16:18:02.971Z,19.27
2022-09-21T16:20:45.918Z,19.30
2022-09-21T16:23:15.918Z,19.31
2022-09-21T16:25:43.518Z,19.33
2022-09-21T16:28:16.471Z,19.41
2022-09-21T16:30:55.182Z,19.51
2022-09-21T16:33:56.981Z,19.63
2022-09-21T16:36:26.449Z,19.57
2022-09-21T16:38:53.708Z,19.59
2022-09-21T16:41:21.526Z,19.66
2022-09-21T16:43:51.127Z,19.70
2022-09-21T16:46:19.058Z,19.61
2022-09-21T16:48:45.815Z,19.44
2022-09-21T16:51:14.615Z,19.31
2022-09-21T16:53:41.604Z,19.21
2022-09-21T16:56:14.667Z,19.16
2022-09-21T16:58:43.737Z,19.06
2022-09-21T17:01:15.860Z,18.96
2022-09-21T17:03:42.806Z,18.88
2022-09-21T17:06:18.027Z,18.79
2022-09-21T17:08:48.308Z,18.73
2022-09-21T17:11:19.996Z,18.71
2022-09-21T17:13:50.806Z,18.70
2022-09-21T17:16:20.228Z,18.67
2022-09-21T17:18:48.616Z,18.63
2022-09-21T17:21:16.430Z,18.57
2022-09-21T17:23:43.283Z,18.54
2022-09-21T17:26:19.409Z,18.52
2022-09-21T17:28:46.401Z,18.44
2022-09-21T17:31:16.480Z,18.37
2022-09-21T17:33:43.703Z,18.30
2022-09-21T17:36:13.909Z,18.25
2022-09-21T17:38:42.461Z,18.21
2022-09-21T17:41:18.192Z,18.17
2022-09-21T17:43:56.530Z,18.11
2022-09-21T17:46:41.429Z,18.08
2022-09-21T17:49:10.586Z,18.05
2022-09-21T17:51:56.066Z,17.97
2022-09-21T17:54:25.556Z,17.90
2022-09-21T17:57:06.953Z,17.89
2022-09-21T17:59:35.775Z,17.84
2022-09-21T18:02:11.244Z,17.79
2022-09-21T18:04:38.869Z,17.73
2022-09-21T18:07:06.017Z,17.72
2022-09-21T18:09:33.058Z,17.66
2022-09-21T18:12:39.428Z,17.61
2022-09-21T18:15:19.442Z,17.55
2022-09-21T18:17:55.198Z,17.53
2022-09-21T18:20:39.481Z,17.51
2022-09-21T18:23:15.608Z,17.47
2022-09-21T18:25:50.439Z,17.44
2022-09-21T18:28:36.684Z,17.38
2022-09-21T18:31:33.647Z,17.32
2022-09-21T18:34:13.262Z,17.28
2022-09-21T18:36:51.532Z,17.25
2022-09-21T18:39:18.299Z,17.21
2022-09-21T18:41:55.881Z,17.15
2022-09-21T18:44:36.423Z,17.10
2022-09-21T18:47:20.354Z,17.06
2022-09-21T18:50:15.367Z,17.00
2022-09-21T18:52:47.320Z,16.94
2022-09-21T18:55:33.402Z,16.90
2022-09-21T18:58:01.148Z,16.86
2022-09-21T19:00:32.473Z,16.84
2022-09-21T19:03:16.370Z,16.81
2022-09-21T19:05:56.909Z,16.77
2022-09-21T19:08:33.249Z,16.71
2022-09-21T19:11:15.037Z,16.66
2022-09-21T19:13:44.498Z,16.65
2022-09-21T19:16:17.519Z,16.65
2022-09-21T19:18:55.767Z,16.62
2022-09-21T19:21:54.859Z,16.59
2022-09-21T19:24:32.001Z,16.59
2022-09-21T19:27:07.795Z,16.58
2022-09-21T19:29:47.129Z,16.58
2022-09-21T19:32:17.140Z,16.54
2022-09-21T19:34:44.417Z,16.53
2022-09-21T19:37:11.540Z,16.49
2022-09-21T19:39:38.709Z,16.47
2022-09-21T19:42:11.565Z,16.47
2022-09-21T19:44:38.740Z,16.43
2022-09-21T19:47:25.852Z,16.42
2022-09-21T19:49:54.649Z,16.39
2022-09-21T19:52:34.725Z,16.35
2022-09-21T19:55:20.885Z,16.35
2022-09-21T19:58:06.484Z,16.34
2022-09-21T20:00:33.474Z,16.34
2022-09-21T20:03:11.143Z,16.33
2022-09-21T20:05:59.636Z,16.32
2022-09-21T20:08:30.383Z,16.28
2022-09-21T20:11:05.668Z,16.26
2022-09-21T20:13:38.148Z,16.21
2022-09-21T20:16:36.658Z,16.24
2022-09-21T20:19:15.127Z,16.21
2022-09-21T20:21:43.805Z,16.18
2022-09-21T20:24:31.816Z,16.18
2022-09-21T20:26:58.953Z,16.20
2022-09-21T20:29:25.713Z,16.22
2022-09-21T20:31:53.064Z,16.25
2022-09-21T20:34:20.266Z,16.26
2022-09-21T20:36:47.042Z,16.25
2022-09-21T20:39:13.744Z,16.27
2022-09-21T20:41:41.447Z,16.26
2022-09-21T20:44:12.362Z,16.25
2022-09-21T20:46:39.231Z,16.24
2022-09-21T20:49:08.228Z,16.24
2022-09-21T20:51:36.137Z,16.24
2022-09-21T20:54:03.968Z,16.22
2022-09-21T20:56:31.553Z,16.24
2022-09-21T20:58:59.310Z,16.25
2022-09-21T21:01:27.061Z,16.26
2022-09-21T21:04:01.738Z,16.29
2022-09-21T21:06:31.294Z,16.31
2022-09-21T21:08:58.533Z,16.33
2022-09-21T21:11:28.143Z,16.34
2022-09-21T21:13:56.174Z,16.35
2022-09-21T21:16:23.214Z,16.36
2022-09-21T21:18:50.260Z,16.36
2022-09-21T21:21:16.971Z,16.37
2022-09-21T21:24:02.244Z,16.37
2022-09-21T21:26:44.198Z,16.36
2022-09-21T21:29:15.576Z,16.36
2022-09-21T21:31:42.396Z,16.38
2022-09-21T21:34:09.253Z,16.37
2022-09-21T21:36:35.965Z,16.35
2022-09-21T21:39:03.809Z,16.36
2022-09-21T21:41:31.561Z,16.36
2022-09-21T21:43:59.189Z,16.34
2022-09-21T21:46:26.193Z,16.33
2022-09-21T21:48:57.107Z,16.31
2022-09-21T21:51:23.829Z,16.31
2022-09-21T21:53:50.798Z,16.31
2022-09-21T21:56:20.165Z,16.30
2022-09-21T21:58:46.854Z,16.30
2022-09-21T22:01:19.303Z,16.29
2022-09-21T22:03:46.285Z,16.28
2022-09-21T22:06:13.055Z,16.27
2022-09-21T22:08:40.825Z,16.29
2022-09-21T22:11:07.801Z,16.30
2022-09-21T22:13:39.190Z,16.31
2022-09-21T22:16:12.099Z,16.30
2022-09-21T22:18:39.922Z,16.28
2022-09-21T22:21:09.294Z,16.27
2022-09-21T22:23:36.618Z,16.25
2022-09-21T22:26:09.718Z,16.22
2022-09-21T22:28:37.078Z,16.22
2022-09-21T22:31:08.621Z,16.21
2022-09-21T22:33:35.488Z,16.20
2022-09-21T22:36:09.311Z,16.21
2022-09-21T22:38:41.970Z,16.22
2022-09-21T22:41:11.118Z,16.21
2022-09-21T22:43:38.445Z,16.19
2022-09-21T22:46:05.784Z,16.18
2022-09-21T22:48:33.098Z,16.20
2022-09-21T22:51:02.856Z,16.18
2022-09-21T22:53:30.021Z,16.17
2022-09-21T22:56:10.126Z,16.18
2022-09-21T22:58:49.367Z,16.19
2022-09-21T23:01:28.233Z,16.17
2022-09-21T23:03:59.464Z,16.16
2022-09-21T23:06:29.155Z,16.18
2022-09-21T23:08:57.601Z,16.18
2022-09-21T23:11:30.239Z,16.19
2022-09-21T23:13:58.342Z,16.18
2022-09-21T23:16:28.074Z,16.16
2022-09-21T23:18:55.973Z,16.16
2022-09-21T23:21:25.914Z,16.16
2022-09-21T23:24:00.112Z,16.15
2022-09-21T23:26:28.817Z,16.14
2022-09-21T23:29:10.090Z,16.11
2022-09-21T23:31:40.009Z,16.12
2022-09-21T23:34:13.468Z,16.12
2022-09-21T23:36:41.385Z,16.12
2022-09-21T23:39:11.726Z,16.11
2022-09-21T23:41:38.838Z,16.11
2022-09-21T23:44:06.084Z,16.13
2022-09-21T23:46:35.696Z,16.12
2022-09-21T23:49:02.913Z,16.12
2022-09-21T23:51:32.932Z,16.11
2022-09-21T23:54:00.116Z,16.10
2022-09-21T23:56:28.317Z,16.08
2022-09-21T23:58:55.081Z,16.07
